sensor_id;sensor_type;location;lat;lon;timestamp;temperature;humidity
11454;DHT22;5783;55.174;61.310;2022-12-18T00:01:58;16.30;30.60
11454;DHT22;5783;55.174;61.310;2022-12-18T00:04:28;16.30;30.80
11454;DHT22;5783;55.174;61.310;2022-12-18T00:06:57;16.30;30.70
11454;DHT22;5783;55.174;61.310;2022-12-18T00:09:26;16.30;30.70
11454;DHT22;5783;55.174;61.310;2022-12-18T00:11:55;16.30;30.80
11454;DHT22;5783;55.174;61.310;2022-12-18T00:14:24;16.30;30.70
11454;DHT22;5783;55.174;61.310;2022-12-18T00:16:53;16.30;30.70
11454;DHT22;5783;55.174;61.310;2022-12-18T00:19:24;16.30;30.60
11454;DHT22;5783;55.174;61.310;2022-12-18T00:21:54;16.40;30.60
11454;DHT22;5783;55.174;61.310;2022-12-18T00:24:24;16.40;30.60
11454;DHT22;5783;55.174;61.310;2022-12-18T00:26:53;16.40;30.50
11454;DHT22;5783;55.174;61.310;2022-12-18T00:29:22;16.40;30.60
11454;DHT22;5783;55.174;61.310;2022-12-18T00:31:52;16.30;30.60
11454;DHT22;5783;55.174;61.310;2022-12-18T00:34:21;16.20;30.60
11454;DHT22;5783;55.174;61.310;2022-12-18T00:36:50;16.20;30.80
11454;DHT22;5783;55.174;61.310;2022-12-18T00:39:19;16.20;30.70
11454;DHT22;5783;55.174;61.310;2022-12-18T00:41:48;16.20;30.60
11454;DHT22;5783;55.174;61.310;2022-12-18T00:44:37;16.30;30.60
11454;DHT22;5783;55.174;61.310;2022-12-18T00:47:06;16.20;30.60
11454;DHT22;5783;55.174;61.310;2022-12-18T00:49:35;16.20;30.70
11454;DHT22;5783;55.174;61.310;2022-12-18T00:52:04;16.20;30.80
11454;DHT22;5783;55.174;61.310;2022-12-18T00:54:33;16.10;30.90
11454;DHT22;5783;55.174;61.310;2022-12-18T00:57:02;16.10;31.00
11454;DHT22;5783;55.174;61.310;2022-12-18T00:59:32;16.10;31.00
11454;DHT22;5783;55.174;61.310;2022-12-18T01:02:01;16.20;31.10
11454;DHT22;5783;55.174;61.310;2022-12-18T01:04:32;16.20;31.10
11454;DHT22;5783;55.174;61.310;2022-12-18T01:07:01;16.20;31.10
11454;DHT22;5783;55.174;61.310;2022-12-18T01:09:30;16.20;31.10
11454;DHT22;5783;55.174;61.310;2022-12-18T01:11:59;16.20;31.20
11454;DHT22;5783;55.174;61.310;2022-12-18T01:14:28;16.30;31.10
11454;DHT22;5783;55.174;61.310;2022-12-18T01:16:57;16.30;31.00
11454;DHT22;5783;55.174;61.310;2022-12-18T01:19:28;16.30;30.90
11454;DHT22;5783;55.174;61.310;2022-12-18T01:21:57;16.40;31.00
11454;DHT22;5783;55.174;61.310;2022-12-18T01:24:26;16.40;31.10
11454;DHT22;5783;55.174;61.310;2022-12-18T01:26:55;16.40;30.90
11454;DHT22;5783;55.174;61.310;2022-12-18T01:29:25;16.40;30.90
11454;DHT22;5783;55.174;61.310;2022-12-18T01:31:55;16.50;30.80
11454;DHT22;5783;55.174;61.310;2022-12-18T01:34:25;16.50;30.50
11454;DHT22;5783;55.174;61.310;2022-12-18T01:36:54;16.50;30.50
11454;DHT22;5783;55.174;61.310;2022-12-18T01:39:23;16.40;30.60
11454;DHT22;5783;55.174;61.310;2022-12-18T01:41:52;16.40;30.70
11454;DHT22;5783;55.174;61.310;2022-12-18T01:48:09;16.30;30.80
11454;DHT22;5783;55.174;61.310;2022-12-18T01:50:57;16.20;31.00
11454;DHT22;5783;55.174;61.310;2022-12-18T01:53:26;16.20;31.00
11454;DHT22;5783;55.174;61.310;2022-12-18T01:55:58;16.20;31.00
11454;DHT22;5783;55.174;61.310;2022-12-18T02:01:37;16.20;31.10
11454;DHT22;5783;55.174;61.310;2022-12-18T02:04:26;16.20;30.90
11454;DHT22;5783;55.174;61.310;2022-12-18T02:10:03;16.20;31.10
11454;DHT22;5783;55.174;61.310;2022-12-18T02:18:37;16.30;31.10
11454;DHT22;5783;55.174;61.310;2022-12-18T02:27:23;16.20;31.30
11454;DHT22;5783;55.174;61.310;2022-12-18T02:29:54;16.30;31.30
11454;DHT22;5783;55.174;61.310;2022-12-18T02:32:27;16.40;31.10
11454;DHT22;5783;55.174;61.310;2022-12-18T02:34:58;16.40;31.20
11454;DHT22;5783;55.174;61.310;2022-12-18T02:37:28;16.40;31.10
11454;DHT22;5783;55.174;61.310;2022-12-18T02:39:59;16.40;31.10
11454;DHT22;5783;55.174;61.310;2022-12-18T02:42:31;16.40;31.00
11454;DHT22;5783;55.174;61.310;2022-12-18T02:45:01;16.40;30.90
11454;DHT22;5783;55.174;61.310;2022-12-18T02:47:34;16.50;31.00
11454;DHT22;5783;55.174;61.310;2022-12-18T02:59:30;16.50;30.60
11454;DHT22;5783;55.174;61.310;2022-12-18T03:02:04;16.50;30.70
11454;DHT22;5783;55.174;61.310;2022-12-18T03:10:32;16.40;31.00
11454;DHT22;5783;55.174;61.310;2022-12-18T03:16:12;16.30;31.10
11454;DHT22;5783;55.174;61.310;2022-12-18T03:21:17;16.30;31.20
11454;DHT22;5783;55.174;61.310;2022-12-18T03:23:49;16.20;31.20
11454;DHT22;5783;55.174;61.310;2022-12-18T03:26:21;16.20;31.30
11454;DHT22;5783;55.174;61.310;2022-12-18T03:31:43;16.20;31.40
11454;DHT22;5783;55.174;61.310;2022-12-18T03:36:46;16.30;31.20
11454;DHT22;5783;55.174;61.310;2022-12-18T03:39:15;16.30;31.10
11454;DHT22;5783;55.174;61.310;2022-12-18T03:47:47;16.30;31.10
11454;DHT22;5783;55.174;61.310;2022-12-18T03:56:14;16.30;31.40
11454;DHT22;5783;55.174;61.310;2022-12-18T03:58:46;16.30;31.40
11454;DHT22;5783;55.174;61.310;2022-12-18T04:01:18;16.30;31.40
11454;DHT22;5783;55.174;61.310;2022-12-18T04:03:50;16.40;31.30
11454;DHT22;5783;55.174;61.310;2022-12-18T04:06:19;16.40;31.40
11454;DHT22;5783;55.174;61.310;2022-12-18T04:08:49;16.30;31.40
11454;DHT22;5783;55.174;61.310;2022-12-18T04:11:19;16.30;31.60
11454;DHT22;5783;55.174;61.310;2022-12-18T04:13:48;16.30;31.60
11454;DHT22;5783;55.174;61.310;2022-12-18T04:16:17;16.30;31.50
11454;DHT22;5783;55.174;61.310;2022-12-18T04:18:46;16.30;31.60
11454;DHT22;5783;55.174;61.310;2022-12-18T04:21:15;16.30;31.60
11454;DHT22;5783;55.174;61.310;2022-12-18T04:23:45;16.20;31.60
11454;DHT22;5783;55.174;61.310;2022-12-18T04:26:14;16.20;31.60
11454;DHT22;5783;55.174;61.310;2022-12-18T04:28:43;16.20;31.50
11454;DHT22;5783;55.174;61.310;2022-12-18T04:31:13;16.20;31.50
11454;DHT22;5783;55.174;61.310;2022-12-18T04:33:42;16.30;31.20
11454;DHT22;5783;55.174;61.310;2022-12-18T04:36:11;16.40;31.20
11454;DHT22;5783;55.174;61.310;2022-12-18T04:38:40;16.60;30.90
11454;DHT22;5783;55.174;61.310;2022-12-18T04:41:09;16.70;30.50
11454;DHT22;5783;55.174;61.310;2022-12-18T04:43:38;16.80;30.30
11454;DHT22;5783;55.174;61.310;2022-12-18T04:46:08;16.90;30.10
11454;DHT22;5783;55.174;61.310;2022-12-18T04:48:38;17.20;33.10
11454;DHT22;5783;55.174;61.310;2022-12-18T04:51:07;17.40;35.80
11454;DHT22;5783;55.174;61.310;2022-12-18T04:53:36;17.60;29.10
11454;DHT22;5783;55.174;61.310;2022-12-18T04:56:25;17.70;31.50
11454;DHT22;5783;55.174;61.310;2022-12-18T04:58:54;17.80;30.80
11454;DHT22;5783;55.174;61.310;2022-12-18T05:01:23;17.80;28.90
11454;DHT22;5783;55.174;61.310;2022-12-18T05:03:52;17.90;36.80
11454;DHT22;5783;55.174;61.310;2022-12-18T05:06:21;18.00;38.20
11454;DHT22;5783;55.174;61.310;2022-12-18T05:08:50;18.10;28.40
11454;DHT22;5783;55.174;61.310;2022-12-18T05:11:19;18.40;51.80
11454;DHT22;5783;55.174;61.310;2022-12-18T05:13:49;18.30;27.90
11454;DHT22;5783;55.174;61.310;2022-12-18T05:16:18;18.30;28.00
11454;DHT22;5783;55.174;61.310;2022-12-18T05:18:47;18.30;28.10
11454;DHT22;5783;55.174;61.310;2022-12-18T05:21:16;18.30;28.10
11454;DHT22;5783;55.174;61.310;2022-12-18T05:23:45;18.40;28.10
11454;DHT22;5783;55.174;61.310;2022-12-18T05:26:16;18.30;28.20
11454;DHT22;5783;55.174;61.310;2022-12-18T05:28:46;18.30;28.20
11454;DHT22;5783;55.174;61.310;2022-12-18T05:31:15;18.20;28.20
11454;DHT22;5783;55.174;61.310;2022-12-18T05:33:44;18.20;28.40
11454;DHT22;5783;55.174;61.310;2022-12-18T05:36:13;18.20;28.40
11454;DHT22;5783;55.174;61.310;2022-12-18T05:38:42;18.20;28.50
11454;DHT22;5783;55.174;61.310;2022-12-18T05:41:12;18.20;28.50
11454;DHT22;5783;55.174;61.310;2022-12-18T05:43:41;18.30;28.40
11454;DHT22;5783;55.174;61.310;2022-12-18T05:46:29;18.30;28.50
11454;DHT22;5783;55.174;61.310;2022-12-18T05:49:18;18.30;28.40
11454;DHT22;5783;55.174;61.310;2022-12-18T05:51:47;18.40;28.40
11454;DHT22;5783;55.174;61.310;2022-12-18T05:56:45;18.50;33.60
11454;DHT22;5783;55.174;61.310;2022-12-18T05:59:14;18.60;58.80
11454;DHT22;5783;55.174;61.310;2022-12-18T06:01:44;18.60;40.20
11454;DHT22;5783;55.174;61.310;2022-12-18T06:04:13;18.70;52.60
11454;DHT22;5783;55.174;61.310;2022-12-18T06:06:42;18.70;39.20
11454;DHT22;5783;55.174;61.310;2022-12-18T06:09:11;18.70;35.30
11454;DHT22;5783;55.174;61.310;2022-12-18T06:11:41;18.70;28.20
11454;DHT22;5783;55.174;61.310;2022-12-18T06:14:10;18.80;28.20
11454;DHT22;5783;55.174;61.310;2022-12-18T06:16:39;18.80;28.10
11454;DHT22;5783;55.174;61.310;2022-12-18T06:19:12;18.90;28.80
11454;DHT22;5783;55.174;61.310;2022-12-18T06:21:41;19.00;49.70
11454;DHT22;5783;55.174;61.310;2022-12-18T06:24:10;18.90;46.80
11454;DHT22;5783;55.174;61.310;2022-12-18T06:26:39;19.00;28.00
11454;DHT22;5783;55.174;61.310;2022-12-18T06:29:08;18.80;31.60
11454;DHT22;5783;55.174;61.310;2022-12-18T06:31:37;19.10;41.00
11454;DHT22;5783;55.174;61.310;2022-12-18T06:34:07;19.00;38.90
11454;DHT22;5783;55.174;61.310;2022-12-18T06:36:36;19.10;39.60
11454;DHT22;5783;55.174;61.310;2022-12-18T06:39:05;19.00;39.20
11454;DHT22;5783;55.174;61.310;2022-12-18T06:41:34;19.00;38.20
11454;DHT22;5783;55.174;61.310;2022-12-18T06:44:03;19.00;38.70
11454;DHT22;5783;55.174;61.310;2022-12-18T06:46:33;19.00;40.30
11454;DHT22;5783;55.174;61.310;2022-12-18T06:49:02;19.00;39.40
11454;DHT22;5783;55.174;61.310;2022-12-18T06:51:50;19.00;27.90
11454;DHT22;5783;55.174;61.310;2022-12-18T06:54:20;19.00;28.10
11454;DHT22;5783;55.174;61.310;2022-12-18T06:56:49;19.00;28.20
11454;DHT22;5783;55.174;61.310;2022-12-18T06:59:18;18.90;28.20
11454;DHT22;5783;55.174;61.310;2022-12-18T07:01:47;18.80;28.30
11454;DHT22;5783;55.174;61.310;2022-12-18T07:04:16;18.70;28.50
11454;DHT22;5783;55.174;61.310;2022-12-18T07:06:45;18.70;28.60
11454;DHT22;5783;55.174;61.310;2022-12-18T07:09:14;18.70;29.30
11454;DHT22;5783;55.174;61.310;2022-12-18T07:11:44;18.70;28.70
11454;DHT22;5783;55.174;61.310;2022-12-18T07:14:13;18.70;28.60
11454;DHT22;5783;55.174;61.310;2022-12-18T07:16:42;18.70;28.70
11454;DHT22;5783;55.174;61.310;2022-12-18T07:19:11;18.70;28.60
11454;DHT22;5783;55.174;61.310;2022-12-18T07:21:40;18.50;28.60
11454;DHT22;5783;55.174;61.310;2022-12-18T07:24:10;18.40;28.70
11454;DHT22;5783;55.174;61.310;2022-12-18T07:26:39;18.40;28.80
11454;DHT22;5783;55.174;61.310;2022-12-18T07:29:08;18.30;29.30
11454;DHT22;5783;55.174;61.310;2022-12-18T07:31:37;18.30;29.30
11454;DHT22;5783;55.174;61.310;2022-12-18T07:36:56;18.20;29.60
11454;DHT22;5783;55.174;61.310;2022-12-18T07:39:26;18.20;29.60
11454;DHT22;5783;55.174;61.310;2022-12-18T07:41:55;18.30;29.70
11454;DHT22;5783;55.174;61.310;2022-12-18T07:44:43;18.30;29.70
11454;DHT22;5783;55.174;61.310;2022-12-18T07:47:12;18.30;29.70
11454;DHT22;5783;55.174;61.310;2022-12-18T07:49:41;18.30;29.70
11454;DHT22;5783;55.174;61.310;2022-12-18T07:52:11;18.30;29.50
11454;DHT22;5783;55.174;61.310;2022-12-18T07:54:40;18.30;29.70
11454;DHT22;5783;55.174;61.310;2022-12-18T07:59:38;18.20;46.00
11454;DHT22;5783;55.174;61.310;2022-12-18T08:02:07;18.20;42.60
11454;DHT22;5783;55.174;61.310;2022-12-18T08:04:36;18.20;38.00
11454;DHT22;5783;55.174;61.310;2022-12-18T08:07:05;18.20;37.50
11454;DHT22;5783;55.174;61.310;2022-12-18T08:09:34;18.20;37.50
11454;DHT22;5783;55.174;61.310;2022-12-18T08:12:04;18.20;37.50
11454;DHT22;5783;55.174;61.310;2022-12-18T08:14:33;18.20;37.30
11454;DHT22;5783;55.174;61.310;2022-12-18T08:17:02;18.20;37.10
11454;DHT22;5783;55.174;61.310;2022-12-18T08:19:31;18.30;36.90
11454;DHT22;5783;55.174;61.310;2022-12-18T08:22:00;18.20;36.20
11454;DHT22;5783;55.174;61.310;2022-12-18T08:24:30;18.20;36.20
11454;DHT22;5783;55.174;61.310;2022-12-18T08:26:59;18.20;36.20
11454;DHT22;5783;55.174;61.310;2022-12-18T08:29:28;18.10;36.20
11454;DHT22;5783;55.174;61.310;2022-12-18T08:31:58;18.20;36.10
11454;DHT22;5783;55.174;61.310;2022-12-18T08:34:27;18.20;36.10
11454;DHT22;5783;55.174;61.310;2022-12-18T08:36:56;18.20;35.90
11454;DHT22;5783;55.174;61.310;2022-12-18T08:39:25;18.20;35.90
11454;DHT22;5783;55.174;61.310;2022-12-18T08:41:54;18.10;36.00
11454;DHT22;5783;55.174;61.310;2022-12-18T08:44:43;18.10;35.80
11454;DHT22;5783;55.174;61.310;2022-12-18T08:47:12;18.20;35.90
11454;DHT22;5783;55.174;61.310;2022-12-18T08:49:41;18.20;35.70
11454;DHT22;5783;55.174;61.310;2022-12-18T08:52:11;18.20;35.60
11454;DHT22;5783;55.174;61.310;2022-12-18T08:54:40;18.20;35.60
11454;DHT22;5783;55.174;61.310;2022-12-18T08:57:09;18.20;35.60
11454;DHT22;5783;55.174;61.310;2022-12-18T08:59:38;18.20;35.60
11454;DHT22;5783;55.174;61.310;2022-12-18T09:04:57;18.20;35.60
11454;DHT22;5783;55.174;61.310;2022-12-18T09:07:27;18.20;35.70
11454;DHT22;5783;55.174;61.310;2022-12-18T09:09:56;18.20;35.70
11454;DHT22;5783;55.174;61.310;2022-12-18T09:12:25;18.30;35.80
11454;DHT22;5783;55.174;61.310;2022-12-18T09:14:54;18.30;35.90
11454;DHT22;5783;55.174;61.310;2022-12-18T09:17:23;18.30;35.80
11454;DHT22;5783;55.174;61.310;2022-12-18T09:19:53;18.30;35.90
11454;DHT22;5783;55.174;61.310;2022-12-18T09:22:22;18.30;36.00
11454;DHT22;5783;55.174;61.310;2022-12-18T09:24:51;18.30;36.00
11454;DHT22;5783;55.174;61.310;2022-12-18T09:27:20;18.30;36.20
11454;DHT22;5783;55.174;61.310;2022-12-18T09:29:49;18.20;36.30
11454;DHT22;5783;55.174;61.310;2022-12-18T09:32:18;18.20;36.50
11454;DHT22;5783;55.174;61.310;2022-12-18T09:34:47;18.30;36.20
11454;DHT22;5783;55.174;61.310;2022-12-18T09:37:17;18.30;36.00
11454;DHT22;5783;55.174;61.310;2022-12-18T09:39:46;18.30;36.40
11454;DHT22;5783;55.174;61.310;2022-12-18T09:42:34;18.30;36.50
11454;DHT22;5783;55.174;61.310;2022-12-18T09:45:04;18.30;36.60
11454;DHT22;5783;55.174;61.310;2022-12-18T09:47:52;18.30;36.50
11454;DHT22;5783;55.174;61.310;2022-12-18T09:50:27;18.30;36.60
11454;DHT22;5783;55.174;61.310;2022-12-18T09:52:58;18.30;36.50
11454;DHT22;5783;55.174;61.310;2022-12-18T09:55:47;18.40;37.30
11454;DHT22;5783;55.174;61.310;2022-12-18T10:01:27;18.40;39.30
11454;DHT22;5783;55.174;61.310;2022-12-18T10:03:57;18.30;39.50
11454;DHT22;5783;55.174;61.310;2022-12-18T10:20:58;18.50;32.40
11454;DHT22;5783;55.174;61.310;2022-12-18T10:26:35;18.50;32.60
11454;DHT22;5783;55.174;61.310;2022-12-18T10:31:54;18.50;32.30
11454;DHT22;5783;55.174;61.310;2022-12-18T10:34:24;18.50;32.60
11454;DHT22;5783;55.174;61.310;2022-12-18T10:36:53;18.50;32.30
11454;DHT22;5783;55.174;61.310;2022-12-18T10:39:44;18.60;32.50
11454;DHT22;5783;55.174;61.310;2022-12-18T10:42:33;18.50;32.00
11454;DHT22;5783;55.174;61.310;2022-12-18T10:45:21;18.50;32.10
11454;DHT22;5783;55.174;61.310;2022-12-18T10:47:51;18.50;32.30
11454;DHT22;5783;55.174;61.310;2022-12-18T10:53:14;18.50;32.30
11454;DHT22;5783;55.174;61.310;2022-12-18T10:55:44;18.40;32.30
11454;DHT22;5783;55.174;61.310;2022-12-18T11:01:26;18.40;32.30
11454;DHT22;5783;55.174;61.310;2022-12-18T11:06:28;18.30;32.00
11454;DHT22;5783;55.174;61.310;2022-12-18T11:14:56;18.30;31.60
11454;DHT22;5783;55.174;61.310;2022-12-18T11:17:47;18.30;31.50
11454;DHT22;5783;55.174;61.310;2022-12-18T11:20:36;18.30;31.40
11454;DHT22;5783;55.174;61.310;2022-12-18T11:23:11;18.30;31.40
11454;DHT22;5783;55.174;61.310;2022-12-18T11:25:37;18.30;31.40
11454;DHT22;5783;55.174;61.310;2022-12-18T11:31:18;18.40;31.30
11454;DHT22;5783;55.174;61.310;2022-12-18T11:33:50;18.40;31.40
11454;DHT22;5783;55.174;61.310;2022-12-18T11:36:20;18.40;31.40
11454;DHT22;5783;55.174;61.310;2022-12-18T11:38:52;18.40;31.40
11454;DHT22;5783;55.174;61.310;2022-12-18T11:41:45;18.30;31.40
11454;DHT22;5783;55.174;61.310;2022-12-18T11:53:38;18.40;31.70
11454;DHT22;5783;55.174;61.310;2022-12-18T12:14:26;18.40;34.10
11454;DHT22;5783;55.174;61.310;2022-12-18T12:26:03;18.20;34.40
11454;DHT22;5783;55.174;61.310;2022-12-18T12:40:31;17.90;35.10
11454;DHT22;5783;55.174;61.310;2022-12-18T12:49:02;17.90;36.60
11454;DHT22;5783;55.174;61.310;2022-12-18T12:51:35;17.90;37.30
11454;DHT22;5783;55.174;61.310;2022-12-18T13:00:24;18.00;37.90
11454;DHT22;5783;55.174;61.310;2022-12-18T13:11:45;18.00;38.90
11454;DHT22;5783;55.174;61.310;2022-12-18T13:14:36;17.90;39.10
11454;DHT22;5783;55.174;61.310;2022-12-18T13:17:27;17.90;39.10
11454;DHT22;5783;55.174;61.310;2022-12-18T13:20:15;17.90;39.00
11454;DHT22;5783;55.174;61.310;2022-12-18T13:22:47;17.90;38.80
11454;DHT22;5783;55.174;61.310;2022-12-18T13:25:37;17.90;39.50
11454;DHT22;5783;55.174;61.310;2022-12-18T13:30:57;18.00;39.50
11454;DHT22;5783;55.174;61.310;2022-12-18T13:45:45;18.00;38.90
11454;DHT22;5783;55.174;61.310;2022-12-18T13:51:07;18.10;39.90
11454;DHT22;5783;55.174;61.310;2022-12-18T13:53:42;18.20;41.10
11454;DHT22;5783;55.174;61.310;2022-12-18T13:56:14;18.10;41.00
11454;DHT22;5783;55.174;61.310;2022-12-18T13:58:40;18.10;40.00
11454;DHT22;5783;55.174;61.310;2022-12-18T14:01:32;18.10;39.40
11454;DHT22;5783;55.174;61.310;2022-12-18T14:04:21;18.20;39.60
11454;DHT22;5783;55.174;61.310;2022-12-18T14:10:22;18.20;39.70
11454;DHT22;5783;55.174;61.310;2022-12-18T14:15:42;18.20;39.60
11454;DHT22;5783;55.174;61.310;2022-12-18T14:18:34;18.10;39.40
11454;DHT22;5783;55.174;61.310;2022-12-18T14:21:03;18.00;39.60
11454;DHT22;5783;55.174;61.310;2022-12-18T14:26:41;17.90;40.00
11454;DHT22;5783;55.174;61.310;2022-12-18T14:29:30;17.80;40.30
11454;DHT22;5783;55.174;61.310;2022-12-18T14:32:19;17.90;40.20
11454;DHT22;5783;55.174;61.310;2022-12-18T14:34:51;17.80;40.10
11454;DHT22;5783;55.174;61.310;2022-12-18T14:37:23;17.70;44.90
11454;DHT22;5783;55.174;61.310;2022-12-18T14:39:56;17.60;42.60
11454;DHT22;5783;55.174;61.310;2022-12-18T14:42:26;17.50;41.60
11454;DHT22;5783;55.174;61.310;2022-12-18T14:47:44;17.20;67.70
11454;DHT22;5783;55.174;61.310;2022-12-18T14:50:14;17.30;66.60
11454;DHT22;5783;55.174;61.310;2022-12-18T14:52:43;17.30;64.20
11454;DHT22;5783;55.174;61.310;2022-12-18T14:55:32;17.10;47.50
11454;DHT22;5783;55.174;61.310;2022-12-18T14:58:02;17.10;43.50
11454;DHT22;5783;55.174;61.310;2022-12-18T15:00:31;17.00;47.50
11454;DHT22;5783;55.174;61.310;2022-12-18T15:03:00;16.90;37.30
11454;DHT22;5783;55.174;61.310;2022-12-18T15:05:30;16.90;36.90
11454;DHT22;5783;55.174;61.310;2022-12-18T15:08:00;16.90;36.70
11454;DHT22;5783;55.174;61.310;2022-12-18T15:10:32;16.90;38.60
11454;DHT22;5783;55.174;61.310;2022-12-18T15:23:50;16.80;41.80
11454;DHT22;5783;55.174;61.310;2022-12-18T15:26:21;16.90;41.80
11454;DHT22;5783;55.174;61.310;2022-12-18T15:34:31;16.90;41.50
11454;DHT22;5783;55.174;61.310;2022-12-18T15:37:01;16.90;41.30
11454;DHT22;5783;55.174;61.310;2022-12-18T15:39:30;16.90;41.10
11454;DHT22;5783;55.174;61.310;2022-12-18T15:42:01;16.90;41.10
11454;DHT22;5783;55.174;61.310;2022-12-18T15:44:49;16.90;40.80
11454;DHT22;5783;55.174;61.310;2022-12-18T15:47:20;17.00;40.70
11454;DHT22;5783;55.174;61.310;2022-12-18T15:49:52;17.00;40.50
11454;DHT22;5783;55.174;61.310;2022-12-18T15:52:21;17.00;40.40
11454;DHT22;5783;55.174;61.310;2022-12-18T15:54:52;17.00;40.40
11454;DHT22;5783;55.174;61.310;2022-12-18T15:57:40;17.00;40.40
11454;DHT22;5783;55.174;61.310;2022-12-18T16:00:11;17.00;40.40
11454;DHT22;5783;55.174;61.310;2022-12-18T16:02:41;17.00;40.50
11454;DHT22;5783;55.174;61.310;2022-12-18T16:07:44;17.00;40.70
11454;DHT22;5783;55.174;61.310;2022-12-18T16:10:13;16.90;41.00
11454;DHT22;5783;55.174;61.310;2022-12-18T16:12:42;16.80;41.10
11454;DHT22;5783;55.174;61.310;2022-12-18T16:15:31;16.80;41.70
11454;DHT22;5783;55.174;61.310;2022-12-18T16:18:00;16.70;42.80
11454;DHT22;5783;55.174;61.310;2022-12-18T16:20:29;16.70;44.10
11454;DHT22;5783;55.174;61.310;2022-12-18T16:22:59;16.80;43.60
11454;DHT22;5783;55.174;61.310;2022-12-18T16:25:29;16.80;43.30
11454;DHT22;5783;55.174;61.310;2022-12-18T16:27:58;16.80;43.10
11454;DHT22;5783;55.174;61.310;2022-12-18T16:30:29;16.90;42.70
11454;DHT22;5783;55.174;61.310;2022-12-18T16:32:59;16.90;42.40
11454;DHT22;5783;55.174;61.310;2022-12-18T16:35:28;16.80;42.40
11454;DHT22;5783;55.174;61.310;2022-12-18T16:37:57;16.90;42.20
11454;DHT22;5783;55.174;61.310;2022-12-18T16:40:26;16.90;42.20
11454;DHT22;5783;55.174;61.310;2022-12-18T16:42:55;16.80;42.40
11454;DHT22;5783;55.174;61.310;2022-12-18T16:45:25;16.80;42.70
11454;DHT22;5783;55.174;61.310;2022-12-18T16:47:55;16.80;42.50
11454;DHT22;5783;55.174;61.310;2022-12-18T16:50:24;16.80;42.60
11454;DHT22;5783;55.174;61.310;2022-12-18T16:52:54;16.70;42.50
11454;DHT22;5783;55.174;61.310;2022-12-18T16:55:23;16.80;42.90
11454;DHT22;5783;55.174;61.310;2022-12-18T16:57:52;16.80;42.90
11454;DHT22;5783;55.174;61.310;2022-12-18T17:00:21;16.70;42.70
11454;DHT22;5783;55.174;61.310;2022-12-18T17:02:50;16.70;42.90
11454;DHT22;5783;55.174;61.310;2022-12-18T17:05:20;16.70;42.80
11454;DHT22;5783;55.174;61.310;2022-12-18T17:07:49;16.80;42.60
11454;DHT22;5783;55.174;61.310;2022-12-18T17:10:18;16.90;42.30
11454;DHT22;5783;55.174;61.310;2022-12-18T17:12:49;17.00;43.50
11454;DHT22;5783;55.174;61.310;2022-12-18T17:15:19;17.10;43.80
11454;DHT22;5783;55.174;61.310;2022-12-18T17:17:48;17.10;43.40
11454;DHT22;5783;55.174;61.310;2022-12-18T17:20:17;17.10;42.90
11454;DHT22;5783;55.174;61.310;2022-12-18T17:22:46;17.20;42.90
11454;DHT22;5783;55.174;61.310;2022-12-18T17:25:15;17.20;42.50
11454;DHT22;5783;55.174;61.310;2022-12-18T17:27:44;17.20;41.90
11454;DHT22;5783;55.174;61.310;2022-12-18T17:30:14;17.20;42.50
11454;DHT22;5783;55.174;61.310;2022-12-18T17:32:43;17.20;42.10
11454;DHT22;5783;55.174;61.310;2022-12-18T17:35:12;17.30;42.30
11454;DHT22;5783;55.174;61.310;2022-12-18T17:37:41;17.20;41.90
11454;DHT22;5783;55.174;61.310;2022-12-18T17:40:12;17.20;42.40
11454;DHT22;5783;55.174;61.310;2022-12-18T17:42:41;17.20;42.10
11454;DHT22;5783;55.174;61.310;2022-12-18T17:45:10;17.20;42.40
11454;DHT22;5783;55.174;61.310;2022-12-18T17:47:39;17.10;42.30
11454;DHT22;5783;55.174;61.310;2022-12-18T17:50:08;17.10;42.30
11454;DHT22;5783;55.174;61.310;2022-12-18T17:55:30;17.10;42.50
11454;DHT22;5783;55.174;61.310;2022-12-18T17:57:59;17.10;42.40
11454;DHT22;5783;55.174;61.310;2022-12-18T18:00:28;17.20;42.60
11454;DHT22;5783;55.174;61.310;2022-12-18T18:02:57;17.20;42.20
11454;DHT22;5783;55.174;61.310;2022-12-18T18:05:27;17.30;42.30
11454;DHT22;5783;55.174;61.310;2022-12-18T18:07:56;17.30;43.90
11454;DHT22;5783;55.174;61.310;2022-12-18T18:10:25;17.40;56.30
11454;DHT22;5783;55.174;61.310;2022-12-18T18:12:54;17.50;55.80
11454;DHT22;5783;55.174;61.310;2022-12-18T18:15:43;17.40;52.70
11454;DHT22;5783;55.174;61.310;2022-12-18T18:18:12;17.30;52.50
11454;DHT22;5783;55.174;61.310;2022-12-18T18:20:41;17.30;52.10
11454;DHT22;5783;55.174;61.310;2022-12-18T18:23:10;17.30;51.90
11454;DHT22;5783;55.174;61.310;2022-12-18T18:25:39;17.20;51.40
11454;DHT22;5783;55.174;61.310;2022-12-18T18:28:09;17.20;51.60
11454;DHT22;5783;55.174;61.310;2022-12-18T18:30:38;17.30;51.40
11454;DHT22;5783;55.174;61.310;2022-12-18T18:33:07;17.30;51.20
11454;DHT22;5783;55.174;61.310;2022-12-18T18:36:09;17.30;51.00
11454;DHT22;5783;55.174;61.310;2022-12-18T18:38:08;17.20;51.30
11454;DHT22;5783;55.174;61.310;2022-12-18T18:40:39;17.20;50.80
11454;DHT22;5783;55.174;61.310;2022-12-18T18:43:28;17.30;50.90
11454;DHT22;5783;55.174;61.310;2022-12-18T18:45:58;17.40;50.90
11454;DHT22;5783;55.174;61.310;2022-12-18T18:51:37;17.30;50.60
11454;DHT22;5783;55.174;61.310;2022-12-18T18:54:06;17.30;50.80
11454;DHT22;5783;55.174;61.310;2022-12-18T18:56:35;17.40;50.90
11454;DHT22;5783;55.174;61.310;2022-12-18T18:59:05;17.30;50.70
11454;DHT22;5783;55.174;61.310;2022-12-18T19:01:35;17.30;50.70
11454;DHT22;5783;55.174;61.310;2022-12-18T19:04:24;17.40;50.70
11454;DHT22;5783;55.174;61.310;2022-12-18T19:06:53;17.40;50.70
11454;DHT22;5783;55.174;61.310;2022-12-18T19:09:41;17.50;51.00
11454;DHT22;5783;55.174;61.310;2022-12-18T19:15:03;17.40;50.90
11454;DHT22;5783;55.174;61.310;2022-12-18T19:17:32;17.40;50.90
11454;DHT22;5783;55.174;61.310;2022-12-18T19:20:03;17.40;51.10
11454;DHT22;5783;55.174;61.310;2022-12-18T19:22:32;17.50;51.20
11454;DHT22;5783;55.174;61.310;2022-12-18T19:25:02;17.50;51.40
11454;DHT22;5783;55.174;61.310;2022-12-18T19:27:32;17.60;59.00
11454;DHT22;5783;55.174;61.310;2022-12-18T19:30:05;17.50;55.10
11454;DHT22;5783;55.174;61.310;2022-12-18T19:32:55;17.40;52.40
11454;DHT22;5783;55.174;61.310;2022-12-18T19:35:24;17.50;51.60
11454;DHT22;5783;55.174;61.310;2022-12-18T19:40:26;17.40;51.30
11454;DHT22;5783;55.174;61.310;2022-12-18T19:43:14;17.40;51.30
11454;DHT22;5783;55.174;61.310;2022-12-18T19:45:43;17.50;51.10
11454;DHT22;5783;55.174;61.310;2022-12-18T19:48:14;17.50;50.80
11454;DHT22;5783;55.174;61.310;2022-12-18T19:50:45;17.50;50.60
11454;DHT22;5783;55.174;61.310;2022-12-18T19:53:17;17.60;50.50
11454;DHT22;5783;55.174;61.310;2022-12-18T19:55:46;17.60;54.10
11454;DHT22;5783;55.174;61.310;2022-12-18T20:01:27;17.70;56.50
11454;DHT22;5783;55.174;61.310;2022-12-18T20:06:33;17.60;52.00